sensor_id;sensor_type;location;lat;lon;timestamp;P1;P2;P0
33264;PMS5003;31404;53.974;-1.086;2022-11-20T00:00:40;11;11;
33264;PMS5003;31404;53.974;-1.086;2022-11-20T00:05:39;9;8;
33264;PMS5003;31404;53.974;-1.086;2022-11-20T00:10:38;7;7;
33264;PMS5003;31404;53.974;-1.086;2022-11-20T00:15:40;8;7;
33264;PMS5003;31404;53.974;-1.086;2022-11-20T00:20:39;10;9;
33264;PMS5003;31404;53.974;-1.086;2022-11-20T00:25:39;14;9;
33264;PMS5003;31404;53.974;-1.086;2022-11-20T00:30:39;13;9;
33264;PMS5003;31404;53.974;-1.086;2022-11-20T00:35:39;14;10;
33264;PMS5003;31404;53.974;-1.086;2022-11-20T00:40:39;15;12;
33264;PMS5003;31404;53.974;-1.086;2022-11-20T00:45:39;9;9;
33264;PMS5003;31404;53.974;-1.086;2022-11-20T00:50:39;16;11;
33264;PMS5003;31404;53.974;-1.086;2022-11-20T00:55:38;13;11;
33264;PMS5003;31404;53.974;-1.086;2022-11-20T01:00:39;14;10;
33264;PMS5003;31404;53.974;-1.086;2022-11-20T01:05:39;16;10;
33264;PMS5003;31404;53.974;-1.086;2022-11-20T01:10:39;13;12;
33264;PMS5003;31404;53.974;-1.086;2022-11-20T01:15:39;17;16;
33264;PMS5003;31404;53.974;-1.086;2022-11-20T01:20:38;26;18;
33264;PMS5003;31404;53.974;-1.086;2022-11-20T01:25:39;16;15;
33264;PMS5003;31404;53.974;-1.086;2022-11-20T01:30:39;24;17;
33264;PMS5003;31404;53.974;-1.086;2022-11-20T01:35:39;16;15;
33264;PMS5003;31404;53.974;-1.086;2022-11-20T01:40:39;19;17;
33264;PMS5003;31404;53.974;-1.086;2022-11-20T01:50:39;17;15;
33264;PMS5003;31404;53.974;-1.086;2022-11-20T01:55:39;21;14;
33264;PMS5003;31404;53.974;-1.086;2022-11-20T02:00:38;19;17;
33264;PMS5003;31404;53.974;-1.086;2022-11-20T02:05:39;20;15;
33264;PMS5003;31404;53.974;-1.086;2022-11-20T02:10:38;24;15;
33264;PMS5003;31404;53.974;-1.086;2022-11-20T02:15:38;19;18;
33264;PMS5003;31404;53.974;-1.086;2022-11-20T02:20:38;15;12;
33264;PMS5003;31404;53.974;-1.086;2022-11-20T02:25:39;17;16;
33264;PMS5003;31404;53.974;-1.086;2022-11-20T02:30:39;16;14;
33264;PMS5003;31404;53.974;-1.086;2022-11-20T02:35:40;17;16;
33264;PMS5003;31404;53.974;-1.086;2022-11-20T02:40:39;19;17;
33264;PMS5003;31404;53.974;-1.086;2022-11-20T02:45:39;20;18;
33264;PMS5003;31404;53.974;-1.086;2022-11-20T02:50:40;17;16;
33264;PMS5003;31404;53.974;-1.086;2022-11-20T02:55:38;17;14;
33264;PMS5003;31404;53.974;-1.086;2022-11-20T03:00:38;16;14;
33264;PMS5003;31404;53.974;-1.086;2022-11-20T03:05:39;26;20;
33264;PMS5003;31404;53.974;-1.086;2022-11-20T03:10:39;15;15;
33264;PMS5003;31404;53.974;-1.086;2022-11-20T03:15:40;14;13;
33264;PMS5003;31404;53.974;-1.086;2022-11-20T03:20:39;25;18;
33264;PMS5003;31404;53.974;-1.086;2022-11-20T03:25:39;15;13;
33264;PMS5003;31404;53.974;-1.086;2022-11-20T03:30:39;19;17;
33264;PMS5003;31404;53.974;-1.086;2022-11-20T03:35:38;26;20;
33264;PMS5003;31404;53.974;-1.086;2022-11-20T03:40:38;24;18;
33264;PMS5003;31404;53.974;-1.086;2022-11-20T03:45:39;23;21;
33264;PMS5003;31404;53.974;-1.086;2022-11-20T03:50:38;24;19;
33264;PMS5003;31404;53.974;-1.086;2022-11-20T03:55:38;24;24;
33264;PMS5003;31404;53.974;-1.086;2022-11-20T04:00:39;24;20;
33264;PMS5003;31404;53.974;-1.086;2022-11-20T04:05:39;24;21;
33264;PMS5003;31404;53.974;-1.086;2022-11-20T04:10:39;23;21;
33264;PMS5003;31404;53.974;-1.086;2022-11-20T04:15:39;22;21;
33264;PMS5003;31404;53.974;-1.086;2022-11-20T04:20:38;25;20;
33264;PMS5003;31404;53.974;-1.086;2022-11-20T04:25:39;21;18;
33264;PMS5003;31404;53.974;-1.086;2022-11-20T04:30:38;28;25;
33264;PMS5003;31404;53.974;-1.086;2022-11-20T04:35:38;20;19;
33264;PMS5003;31404;53.974;-1.086;2022-11-20T04:40:38;30;23;
33264;PMS5003;31404;53.974;-1.086;2022-11-20T04:45:39;23;20;
33264;PMS5003;31404;53.974;-1.086;2022-11-20T04:50:40;25;21;
33264;PMS5003;31404;53.974;-1.086;2022-11-20T04:55:39;21;20;
33264;PMS5003;31404;53.974;-1.086;2022-11-20T05:00:38;23;20;
33264;PMS5003;31404;53.974;-1.086;2022-11-20T05:05:39;24;21;
33264;PMS5003;31404;53.974;-1.086;2022-11-20T05:10:39;30;23;
33264;PMS5003;31404;53.974;-1.086;2022-11-20T05:15:40;31;23;
33264;PMS5003;31404;53.974;-1.086;2022-11-20T05:20:39;20;17;
33264;PMS5003;31404;53.974;-1.086;2022-11-20T05:25:39;32;23;
33264;PMS5003;31404;53.974;-1.086;2022-11-20T05:30:39;23;20;
33264;PMS5003;31404;53.974;-1.086;2022-11-20T05:35:38;34;26;
33264;PMS5003;31404;53.974;-1.086;2022-11-20T05:40:38;30;24;
33264;PMS5003;31404;53.974;-1.086;2022-11-20T05:45:38;22;20;
33264;PMS5003;31404;53.974;-1.086;2022-11-20T05:50:38;23;19;
33264;PMS5003;31404;53.974;-1.086;2022-11-20T05:55:38;31;24;
33264;PMS5003;31404;53.974;-1.086;2022-11-20T06:00:38;24;21;
33264;PMS5003;31404;53.974;-1.086;2022-11-20T06:05:38;19;18;
33264;PMS5003;31404;53.974;-1.086;2022-11-20T06:10:38;22;22;
33264;PMS5003;31404;53.974;-1.086;2022-11-20T06:15:40;23;21;
33264;PMS5003;31404;53.974;-1.086;2022-11-20T06:20:38;27;21;
33264;PMS5003;31404;53.974;-1.086;2022-11-20T06:25:42;22;20;
33264;PMS5003;31404;53.974;-1.086;2022-11-20T06:35:38;14;14;
33264;PMS5003;31404;53.974;-1.086;2022-11-20T06:40:39;21;18;
33264;PMS5003;31404;53.974;-1.086;2022-11-20T06:45:39;18;15;
33264;PMS5003;31404;53.974;-1.086;2022-11-20T06:50:38;21;18;
33264;PMS5003;31404;53.974;-1.086;2022-11-20T07:00:39;18;16;
33264;PMS5003;31404;53.974;-1.086;2022-11-20T07:05:38;21;15;
33264;PMS5003;31404;53.974;-1.086;2022-11-20T07:10:38;24;22;
33264;PMS5003;31404;53.974;-1.086;2022-11-20T07:15:39;15;15;
33264;PMS5003;31404;53.974;-1.086;2022-11-20T07:20:39;20;16;
33264;PMS5003;31404;53.974;-1.086;2022-11-20T07:25:39;18;16;
33264;PMS5003;31404;53.974;-1.086;2022-11-20T07:30:38;18;18;
33264;PMS5003;31404;53.974;-1.086;2022-11-20T07:35:39;21;20;
33264;PMS5003;31404;53.974;-1.086;2022-11-20T07:40:39;14;11;
33264;PMS5003;31404;53.974;-1.086;2022-11-20T07:45:39;19;17;
33264;PMS5003;31404;53.974;-1.086;2022-11-20T07:50:39;18;15;
33264;PMS5003;31404;53.974;-1.086;2022-11-20T07:55:40;16;15;
33264;PMS5003;31404;53.974;-1.086;2022-11-20T08:00:38;26;21;
33264;PMS5003;31404;53.974;-1.086;2022-11-20T08:05:39;23;19;
33264;PMS5003;31404;53.974;-1.086;2022-11-20T08:10:39;18;18;
33264;PMS5003;31404;53.974;-1.086;2022-11-20T08:15:39;19;17;
33264;PMS5003;31404;53.974;-1.086;2022-11-20T08:20:39;19;17;
33264;PMS5003;31404;53.974;-1.086;2022-11-20T08:25:39;17;15;
33264;PMS5003;31404;53.974;-1.086;2022-11-20T08:30:39;16;16;
33264;PMS5003;31404;53.974;-1.086;2022-11-20T08:35:39;15;15;
33264;PMS5003;31404;53.974;-1.086;2022-11-20T08:40:39;20;18;
33264;PMS5003;31404;53.974;-1.086;2022-11-20T08:45:39;20;16;
33264;PMS5003;31404;53.974;-1.086;2022-11-20T08:50:39;10;10;
33264;PMS5003;31404;53.974;-1.086;2022-11-20T08:55:38;14;14;
33264;PMS5003;31404;53.974;-1.086;2022-11-20T09:00:39;22;15;
33264;PMS5003;31404;53.974;-1.086;2022-11-20T09:05:39;18;13;
33264;PMS5003;31404;53.974;-1.086;2022-11-20T09:10:39;21;21;
33264;PMS5003;31404;53.974;-1.086;2022-11-20T09:15:39;27;27;
33264;PMS5003;31404;53.974;-1.086;2022-11-20T09:20:39;24;23;
33264;PMS5003;31404;53.974;-1.086;2022-11-20T09:25:39;24;21;
33264;PMS5003;31404;53.974;-1.086;2022-11-20T09:30:39;18;18;
33264;PMS5003;31404;53.974;-1.086;2022-11-20T09:35:39;23;18;
33264;PMS5003;31404;53.974;-1.086;2022-11-20T09:40:40;22;19;
33264;PMS5003;31404;53.974;-1.086;2022-11-20T09:50:35;21;19;
33264;PMS5003;31404;53.974;-1.086;2022-11-20T09:55:38;20;19;
33264;PMS5003;31404;53.974;-1.086;2022-11-20T10:00:39;29;21;
33264;PMS5003;31404;53.974;-1.086;2022-11-20T10:05:39;17;16;
33264;PMS5003;31404;53.974;-1.086;2022-11-20T10:10:40;18;18;
33264;PMS5003;31404;53.974;-1.086;2022-11-20T10:15:44;18;17;
33264;PMS5003;31404;53.974;-1.086;2022-11-20T10:20:42;11;11;
33264;PMS5003;31404;53.974;-1.086;2022-11-20T10:25:39;20;16;
33264;PMS5003;31404;53.974;-1.086;2022-11-20T10:30:40;19;15;
33264;PMS5003;31404;53.974;-1.086;2022-11-20T10:35:40;23;19;
33264;PMS5003;31404;53.974;-1.086;2022-11-20T10:40:39;20;17;
33264;PMS5003;31404;53.974;-1.086;2022-11-20T10:50:40;17;16;
33264;PMS5003;31404;53.974;-1.086;2022-11-20T10:55:40;19;15;
33264;PMS5003;31404;53.974;-1.086;2022-11-20T11:00:39;19;17;
33264;PMS5003;31404;53.974;-1.086;2022-11-20T11:05:41;18;17;
33264;PMS5003;31404;53.974;-1.086;2022-11-20T11:10:40;18;16;
33264;PMS5003;31404;53.974;-1.086;2022-11-20T11:15:40;22;22;
33264;PMS5003;31404;53.974;-1.086;2022-11-20T11:20:39;19;16;
33264;PMS5003;31404;53.974;-1.086;2022-11-20T11:25:39;10;10;
33264;PMS5003;31404;53.974;-1.086;2022-11-20T11:40:39;12;10;
33264;PMS5003;31404;53.974;-1.086;2022-11-20T11:45:39;10;9;
33264;PMS5003;31404;53.974;-1.086;2022-11-20T11:50:47;13;11;
33264;PMS5003;31404;53.974;-1.086;2022-11-20T11:55:40;10;9;
33264;PMS5003;31404;53.974;-1.086;2022-11-20T12:00:39;6;6;
33264;PMS5003;31404;53.974;-1.086;2022-11-20T12:05:40;5;5;
33264;PMS5003;31404;53.974;-1.086;2022-11-20T12:10:41;8;7;
33264;PMS5003;31404;53.974;-1.086;2022-11-20T12:15:38;7;7;
33264;PMS5003;31404;53.974;-1.086;2022-11-20T12:20:40;8;5;
33264;PMS5003;31404;53.974;-1.086;2022-11-20T12:25:39;8;6;
33264;PMS5003;31404;53.974;-1.086;2022-11-20T12:30:41;4;4;
33264;PMS5003;31404;53.974;-1.086;2022-11-20T12:40:40;6;4;
33264;PMS5003;31404;53.974;-1.086;2022-11-20T12:50:42;6;3;
33264;PMS5003;31404;53.974;-1.086;2022-11-20T13:00:40;7;4;
33264;PMS5003;31404;53.974;-1.086;2022-11-20T13:05:43;6;5;
33264;PMS5003;31404;53.974;-1.086;2022-11-20T13:10:39;3;3;
33264;PMS5003;31404;53.974;-1.086;2022-11-20T13:25:39;2;1;
33264;PMS5003;31404;53.974;-1.086;2022-11-20T13:35:40;3;2;
33264;PMS5003;31404;53.974;-1.086;2022-11-20T13:40:49;5;2;
33264;PMS5003;31404;53.974;-1.086;2022-11-20T13:45:39;2;2;
33264;PMS5003;31404;53.974;-1.086;2022-11-20T13:50:40;5;4;
33264;PMS5003;31404;53.974;-1.086;2022-11-20T13:55:40;6;5;
33264;PMS5003;31404;53.974;-1.086;2022-11-20T14:05:39;2;2;
33264;PMS5003;31404;53.974;-1.086;2022-11-20T14:10:39;8;4;
33264;PMS5003;31404;53.974;-1.086;2022-11-20T14:15:39;3;3;
33264;PMS5003;31404;53.974;-1.086;2022-11-20T14:20:39;4;4;
33264;PMS5003;31404;53.974;-1.086;2022-11-20T14:30:42;3;3;
33264;PMS5003;31404;53.974;-1.086;2022-11-20T14:35:42;7;6;
33264;PMS5003;31404;53.974;-1.086;2022-11-20T14:40:39;10;7;
33264;PMS5003;31404;53.974;-1.086;2022-11-20T14:45:38;6;6;
33264;PMS5003;31404;53.974;-1.086;2022-11-20T14:50:38;8;6;
33264;PMS5003;31404;53.974;-1.086;2022-11-20T14:55:38;7;6;
33264;PMS5003;31404;53.974;-1.086;2022-11-20T15:00:39;14;12;
33264;PMS5003;31404;53.974;-1.086;2022-11-20T15:10:38;24;24;
33264;PMS5003;31404;53.974;-1.086;2022-11-20T15:15:41;17;17;
33264;PMS5003;31404;53.974;-1.086;2022-11-20T15:20:39;13;12;
33264;PMS5003;31404;53.974;-1.086;2022-11-20T15:25:38;18;17;
33264;PMS5003;31404;53.974;-1.086;2022-11-20T15:30:39;7;4;
33264;PMS5003;31404;53.974;-1.086;2022-11-20T15:35:39;3;3;
33264;PMS5003;31404;53.974;-1.086;2022-11-20T15:40:38;12;9;
33264;PMS5003;31404;53.974;-1.086;2022-11-20T15:45:39;5;5;
33264;PMS5003;31404;53.974;-1.086;2022-11-20T15:50:41;4;3;
33264;PMS5003;31404;53.974;-1.086;2022-11-20T15:55:39;5;3;
33264;PMS5003;31404;53.974;-1.086;2022-11-20T16:00:39;2;2;
33264;PMS5003;31404;53.974;-1.086;2022-11-20T16:05:39;5;5;
33264;PMS5003;31404;53.974;-1.086;2022-11-20T16:10:39;2;2;
33264;PMS5003;31404;53.974;-1.086;2022-11-20T16:15:34;2;2;
33264;PMS5003;31404;53.974;-1.086;2022-11-20T16:20:38;2;2;
33264;PMS5003;31404;53.974;-1.086;2022-11-20T16:25:39;4;2;
33264;PMS5003;31404;53.974;-1.086;2022-11-20T16:30:38;4;4;
33264;PMS5003;31404;53.974;-1.086;2022-11-20T16:35:39;11;11;
33264;PMS5003;31404;53.974;-1.086;2022-11-20T16:40:39;8;8;
33264;PMS5003;31404;53.974;-1.086;2022-11-20T16:45:39;2;2;
33264;PMS5003;31404;53.974;-1.086;2022-11-20T16:55:38;4;2;
33264;PMS5003;31404;53.974;-1.086;2022-11-20T17:00:39;5;4;
33264;PMS5003;31404;53.974;-1.086;2022-11-20T17:05:39;4;4;
33264;PMS5003;31404;53.974;-1.086;2022-11-20T17:10:39;7;6;
33264;PMS5003;31404;53.974;-1.086;2022-11-20T17:15:39;8;8;
33264;PMS5003;31404;53.974;-1.086;2022-11-20T17:20:40;11;10;
33264;PMS5003;31404;53.974;-1.086;2022-11-20T17:25:39;16;13;
33264;PMS5003;31404;53.974;-1.086;2022-11-20T17:30:39;14;11;
33264;PMS5003;31404;53.974;-1.086;2022-11-20T17:35:39;12;11;
33264;PMS5003;31404;53.974;-1.086;2022-11-20T17:40:39;14;14;
33264;PMS5003;31404;53.974;-1.086;2022-11-20T17:45:40;18;18;
33264;PMS5003;31404;53.974;-1.086;2022-11-20T17:50:39;19;16;
33264;PMS5003;31404;53.974;-1.086;2022-11-20T17:55:38;9;9;
33264;PMS5003;31404;53.974;-1.086;2022-11-20T18:00:38;9;9;
33264;PMS5003;31404;53.974;-1.086;2022-11-20T18:05:38;8;7;
33264;PMS5003;31404;53.974;-1.086;2022-11-20T18:10:39;11;10;
33264;PMS5003;31404;53.974;-1.086;2022-11-20T18:15:39;8;6;
33264;PMS5003;31404;53.974;-1.086;2022-11-20T18:20:39;12;8;
33264;PMS5003;31404;53.974;-1.086;2022-11-20T18:25:39;12;9;
33264;PMS5003;31404;53.974;-1.086;2022-11-20T18:30:39;11;11;
33264;PMS5003;31404;53.974;-1.086;2022-11-20T18:35:39;31;22;
33264;PMS5003;31404;53.974;-1.086;2022-11-20T18:40:38;44;37;
33264;PMS5003;31404;53.974;-1.086;2022-11-20T18:45:39;32;31;
33264;PMS5003;31404;53.974;-1.086;2022-11-20T18:50:39;26;23;
33264;PMS5003;31404;53.974;-1.086;2022-11-20T18:55:38;30;30;
33264;PMS5003;31404;53.974;-1.086;2022-11-20T19:00:39;20;15;
33264;PMS5003;31404;53.974;-1.086;2022-11-20T19:05:39;35;31;
33264;PMS5003;31404;53.974;-1.086;2022-11-20T19:10:39;16;15;
33264;PMS5003;31404;53.974;-1.086;2022-11-20T19:15:39;21;13;
33264;PMS5003;31404;53.974;-1.086;2022-11-20T19:20:39;12;12;
33264;PMS5003;31404;53.974;-1.086;2022-11-20T19:25:39;14;14;
33264;PMS5003;31404;53.974;-1.086;2022-11-20T19:30:39;14;14;
33264;PMS5003;31404;53.974;-1.086;2022-11-20T19:35:38;27;25;
33264;PMS5003;31404;53.974;-1.086;2022-11-20T19:40:38;22;21;
33264;PMS5003;31404;53.974;-1.086;2022-11-20T19:45:39;21;21;
33264;PMS5003;31404;53.974;-1.086;2022-11-20T19:50:39;26;23;
33264;PMS5003;31404;53.974;-1.086;2022-11-20T19:55:39;27;25;
33264;PMS5003;31404;53.974;-1.086;2022-11-20T20:00:39;43;40;
33264;PMS5003;31404;53.974;-1.086;2022-11-20T20:05:39;27;23;
33264;PMS5003;31404;53.974;-1.086;2022-11-20T20:10:39;20;18;
33264;PMS5003;31404;53.974;-1.086;2022-11-20T20:15:40;14;13;
33264;PMS5003;31404;53.974;-1.086;2022-11-20T20:20:39;14;14;
33264;PMS5003;31404;53.974;-1.086;2022-11-20T20:25:39;20;15;
33264;PMS5003;31404;53.974;-1.086;2022-11-20T20:30:39;23;19;
33264;PMS5003;31404;53.974;-1.086;2022-11-20T20:35:39;18;18;
33264;PMS5003;31404;53.974;-1.086;2022-11-20T20:50:39;43;38;
33264;PMS5003;31404;53.974;-1.086;2022-11-20T20:55:39;18;17;
33264;PMS5003;31404;53.974;-1.086;2022-11-20T21:00:39;17;15;
33264;PMS5003;31404;53.974;-1.086;2022-11-20T21:05:39;36;32;
33264;PMS5003;31404;53.974;-1.086;2022-11-20T21:10:39;35;33;
33264;PMS5003;31404;53.974;-1.086;2022-11-20T21:15:40;26;25;
33264;PMS5003;31404;53.974;-1.086;2022-11-20T21:20:38;25;21;
33264;PMS5003;31404;53.974;-1.086;2022-11-20T21:25:39;22;17;
33264;PMS5003;31404;53.974;-1.086;2022-11-20T21:30:39;23;17;
33264;PMS5003;31404;53.974;-1.086;2022-11-20T21:35:38;17;17;
33264;PMS5003;31404;53.974;-1.086;2022-11-20T21:40:39;9;8;
33264;PMS5003;31404;53.974;-1.086;2022-11-20T21:45:39;13;13;
33264;PMS5003;31404;53.974;-1.086;2022-11-20T21:50:39;13;13;
33264;PMS5003;31404;53.974;-1.086;2022-11-20T21:55:40;9;8;
33264;PMS5003;31404;53.974;-1.086;2022-11-20T22:00:39;18;17;
33264;PMS5003;31404;53.974;-1.086;2022-11-20T22:05:39;19;17;
33264;PMS5003;31404;53.974;-1.086;2022-11-20T22:10:39;20;16;
33264;PMS5003;31404;53.974;-1.086;2022-11-20T22:15:40;20;18;
33264;PMS5003;31404;53.974;-1.086;2022-11-20T22:20:38;24;24;
33264;PMS5003;31404;53.974;-1.086;2022-11-20T22:25:39;25;24;
33264;PMS5003;31404;53.974;-1.086;2022-11-20T22:30:39;29;26;
33264;PMS5003;31404;53.974;-1.086;2022-11-20T22:35:39;21;20;
33264;PMS5003;31404;53.974;-1.086;2022-11-20T22:40:38;30;25;
33264;PMS5003;31404;53.974;-1.086;2022-11-20T22:45:37;24;21;
33264;PMS5003;31404;53.974;-1.086;2022-11-20T22:50:39;24;21;
33264;PMS5003;31404;53.974;-1.086;2022-11-20T22:55:38;23;23;
33264;PMS5003;31404;53.974;-1.086;2022-11-20T23:00:39;27;25;
33264;PMS5003;31404;53.974;-1.086;2022-11-20T23:05:39;32;27;
33264;PMS5003;31404;53.974;-1.086;2022-11-20T23:10:39;28;27;
33264;PMS5003;31404;53.974;-1.086;2022-11-20T23:15:40;30;24;
33264;PMS5003;31404;53.974;-1.086;2022-11-20T23:20:38;26;25;
33264;PMS5003;31404;53.974;-1.086;2022-11-20T23:25:38;27;26;
33264;PMS5003;31404;53.974;-1.086;2022-11-20T23:30:39;27;20;
33264;PMS5003;31404;53.974;-1.086;2022-11-20T23:35:39;25;20;
33264;PMS5003;31404;53.974;-1.086;2022-11-20T23:40:39;20;20;
33264;PMS5003;31404;53.974;-1.086;2022-11-20T23:45:38;18;18;
33264;PMS5003;31404;53.974;-1.086;2022-11-20T23:50:39;25;24;
33264;PMS5003;31404;53.974;-1.086;2022-11-20T23:55:38;23;22;
